sensor_id;sensor_type;location;lat;lon;timestamp;P1;durP1;ratioP1;P2;durP2;ratioP2
10450;SDS011;5273;51.290;6.918;2022-08-14T00:02:07;6.40;;;4.22;;
10450;SDS011;5273;51.290;6.918;2022-08-14T00:04:34;4.78;;;4.25;;
10450;SDS011;5273;51.290;6.918;2022-08-14T00:07:03;5.93;;;4.60;;
10450;SDS011;5273;51.290;6.918;2022-08-14T00:09:30;6.65;;;4.50;;
10450;SDS011;5273;51.290;6.918;2022-08-14T00:11:57;4.65;;;4.25;;
10450;SDS011;5273;51.290;6.918;2022-08-14T00:14:24;6.13;;;4.53;;
10450;SDS011;5273;51.290;6.918;2022-08-14T00:16:51;5.32;;;4.85;;
10450;SDS011;5273;51.290;6.918;2022-08-14T00:19:19;6.10;;;4.50;;
10450;SDS011;5273;51.290;6.918;2022-08-14T00:21:46;6.00;;;4.82;;
10450;SDS011;5273;51.290;6.918;2022-08-14T00:24:15;5.43;;;4.95;;
10450;SDS011;5273;51.290;6.918;2022-08-14T00:26:42;5.10;;;4.45;;
10450;SDS011;5273;51.290;6.918;2022-08-14T00:29:09;7.38;;;4.82;;
10450;SDS011;5273;51.290;6.918;2022-08-14T00:31:35;4.45;;;4.15;;
10450;SDS011;5273;51.290;6.918;2022-08-14T00:34:02;7.13;;;5.43;;
10450;SDS011;5273;51.290;6.918;2022-08-14T00:36:30;5.68;;;4.90;;
10450;SDS011;5273;51.290;6.918;2022-08-14T00:38:57;7.97;;;5.35;;
10450;SDS011;5273;51.290;6.918;2022-08-14T00:41:28;5.82;;;5.28;;
10450;SDS011;5273;51.290;6.918;2022-08-14T00:43:56;5.50;;;5.00;;
10450;SDS011;5273;51.290;6.918;2022-08-14T00:46:22;6.93;;;5.30;;
10450;SDS011;5273;51.290;6.918;2022-08-14T00:48:49;6.75;;;5.00;;
10450;SDS011;5273;51.290;6.918;2022-08-14T00:51:16;6.55;;;5.15;;
10450;SDS011;5273;51.290;6.918;2022-08-14T00:53:45;5.95;;;5.35;;
10450;SDS011;5273;51.290;6.918;2022-08-14T00:56:14;6.22;;;5.22;;
10450;SDS011;5273;51.290;6.918;2022-08-14T00:58:45;6.22;;;5.10;;
10450;SDS011;5273;51.290;6.918;2022-08-14T01:01:12;6.20;;;5.60;;
10450;SDS011;5273;51.290;6.918;2022-08-14T01:03:41;5.93;;;5.00;;
10450;SDS011;5273;51.290;6.918;2022-08-14T01:06:08;5.57;;;5.07;;
10450;SDS011;5273;51.290;6.918;2022-08-14T01:08:36;7.63;;;4.90;;
10450;SDS011;5273;51.290;6.918;2022-08-14T01:11:06;6.07;;;4.90;;
10450;SDS011;5273;51.290;6.918;2022-08-14T01:13:33;5.75;;;5.10;;
10450;SDS011;5273;51.290;6.918;2022-08-14T01:16:04;8.18;;;5.07;;
10450;SDS011;5273;51.290;6.918;2022-08-14T01:18:32;5.68;;;4.90;;
10450;SDS011;5273;51.290;6.918;2022-08-14T01:21:21;6.85;;;5.18;;
10450;SDS011;5273;51.290;6.918;2022-08-14T01:23:50;7.43;;;5.68;;
10450;SDS011;5273;51.290;6.918;2022-08-14T01:26:19;7.65;;;5.85;;
10450;SDS011;5273;51.290;6.918;2022-08-14T01:28:47;6.20;;;5.60;;
10450;SDS011;5273;51.290;6.918;2022-08-14T01:31:16;5.87;;;5.40;;
10450;SDS011;5273;51.290;6.918;2022-08-14T01:33:44;5.18;;;4.75;;
10450;SDS011;5273;51.290;6.918;2022-08-14T01:36:14;6.63;;;5.20;;
10450;SDS011;5273;51.290;6.918;2022-08-14T01:38:46;6.50;;;5.20;;
10450;SDS011;5273;51.290;6.918;2022-08-14T01:41:15;6.22;;;5.68;;
10450;SDS011;5273;51.290;6.918;2022-08-14T01:43:45;5.53;;;5.03;;
10450;SDS011;5273;51.290;6.918;2022-08-14T01:46:14;6.00;;;5.45;;
10450;SDS011;5273;51.290;6.918;2022-08-14T01:48:42;6.10;;;5.10;;
10450;SDS011;5273;51.290;6.918;2022-08-14T01:51:11;6.30;;;5.80;;
10450;SDS011;5273;51.290;6.918;2022-08-14T01:53:39;8.52;;;5.97;;
10450;SDS011;5273;51.290;6.918;2022-08-14T01:56:09;6.65;;;5.97;;
10450;SDS011;5273;51.290;6.918;2022-08-14T01:58:36;7.47;;;5.90;;
10450;SDS011;5273;51.290;6.918;2022-08-14T02:01:03;6.65;;;6.03;;
10450;SDS011;5273;51.290;6.918;2022-08-14T02:03:31;6.60;;;6.00;;
10450;SDS011;5273;51.290;6.918;2022-08-14T02:06:05;6.93;;;5.78;;
10450;SDS011;5273;51.290;6.918;2022-08-14T02:08:32;8.98;;;5.75;;
10450;SDS011;5273;51.290;6.918;2022-08-14T02:11:02;6.22;;;5.63;;
10450;SDS011;5273;51.290;6.918;2022-08-14T02:13:44;5.72;;;5.22;;
10450;SDS011;5273;51.290;6.918;2022-08-14T02:16:13;9.70;;;5.85;;
10450;SDS011;5273;51.290;6.918;2022-08-14T02:18:43;6.43;;;5.80;;
10450;SDS011;5273;51.290;6.918;2022-08-14T02:21:10;6.47;;;5.88;;
10450;SDS011;5273;51.290;6.918;2022-08-14T02:23:38;6.13;;;5.55;;
10450;SDS011;5273;51.290;6.918;2022-08-14T02:26:13;6.22;;;5.63;;
10450;SDS011;5273;51.290;6.918;2022-08-14T02:28:41;7.55;;;6.47;;
10450;SDS011;5273;51.290;6.918;2022-08-14T02:31:09;6.40;;;5.90;;
10450;SDS011;5273;51.290;6.918;2022-08-14T02:33:37;8.10;;;6.20;;
10450;SDS011;5273;51.290;6.918;2022-08-14T02:36:06;8.88;;;5.45;;
10450;SDS011;5273;51.290;6.918;2022-08-14T02:38:35;6.72;;;5.40;;
10450;SDS011;5273;51.290;6.918;2022-08-14T02:41:02;7.00;;;6.30;;
10450;SDS011;5273;51.290;6.918;2022-08-14T02:43:30;6.65;;;6.05;;
10450;SDS011;5273;51.290;6.918;2022-08-14T02:45:57;8.02;;;6.43;;
10450;SDS011;5273;51.290;6.918;2022-08-14T02:48:25;6.30;;;5.70;;
10450;SDS011;5273;51.290;6.918;2022-08-14T02:50:55;7.75;;;6.40;;
10450;SDS011;5273;51.290;6.918;2022-08-14T02:53:22;6.82;;;6.05;;
10450;SDS011;5273;51.290;6.918;2022-08-14T02:55:49;6.13;;;5.65;;
10450;SDS011;5273;51.290;6.918;2022-08-14T02:58:16;6.85;;;6.25;;
10450;SDS011;5273;51.290;6.918;2022-08-14T03:00:48;6.95;;;6.25;;
10450;SDS011;5273;51.290;6.918;2022-08-14T03:03:15;7.13;;;5.90;;
10450;SDS011;5273;51.290;6.918;2022-08-14T03:05:43;6.32;;;5.72;;
10450;SDS011;5273;51.290;6.918;2022-08-14T03:08:11;7.75;;;6.32;;
10450;SDS011;5273;51.290;6.918;2022-08-14T03:10:39;6.35;;;5.85;;
10450;SDS011;5273;51.290;6.918;2022-08-14T03:13:06;8.10;;;6.10;;
10450;SDS011;5273;51.290;6.918;2022-08-14T03:15:34;6.43;;;5.82;;
10450;SDS011;5273;51.290;6.918;2022-08-14T03:18:03;6.00;;;5.50;;
10450;SDS011;5273;51.290;6.918;2022-08-14T03:20:34;7.82;;;6.38;;
10450;SDS011;5273;51.290;6.918;2022-08-14T03:23:02;8.13;;;5.75;;
10450;SDS011;5273;51.290;6.918;2022-08-14T03:25:29;7.10;;;6.50;;
10450;SDS011;5273;51.290;6.918;2022-08-14T03:27:57;7.65;;;6.38;;
10450;SDS011;5273;51.290;6.918;2022-08-14T03:30:28;7.07;;;5.80;;
10450;SDS011;5273;51.290;6.918;2022-08-14T03:32:56;6.88;;;6.28;;
10450;SDS011;5273;51.290;6.918;2022-08-14T03:35:23;9.80;;;5.95;;
10450;SDS011;5273;51.290;6.918;2022-08-14T03:37:50;7.00;;;6.30;;
10450;SDS011;5273;51.290;6.918;2022-08-14T03:40:19;8.73;;;6.13;;
10450;SDS011;5273;51.290;6.918;2022-08-14T03:42:46;6.72;;;6.03;;
10450;SDS011;5273;51.290;6.918;2022-08-14T03:45:14;6.35;;;5.78;;
10450;SDS011;5273;51.290;6.918;2022-08-14T03:47:42;6.13;;;5.63;;
10450;SDS011;5273;51.290;6.918;2022-08-14T03:50:09;6.85;;;6.25;;
10450;SDS011;5273;51.290;6.918;2022-08-14T03:52:38;6.80;;;6.15;;
10450;SDS011;5273;51.290;6.918;2022-08-14T03:55:06;7.15;;;6.55;;
10450;SDS011;5273;51.290;6.918;2022-08-14T03:57:37;7.82;;;6.55;;
10450;SDS011;5273;51.290;6.918;2022-08-14T04:00:06;6.43;;;5.82;;
10450;SDS011;5273;51.290;6.918;2022-08-14T04:02:36;6.57;;;5.97;;
10450;SDS011;5273;51.290;6.918;2022-08-14T04:05:04;7.13;;;6.43;;
10450;SDS011;5273;51.290;6.918;2022-08-14T04:07:32;6.32;;;5.80;;
10450;SDS011;5273;51.290;6.918;2022-08-14T04:09:59;6.78;;;6.07;;
10450;SDS011;5273;51.290;6.918;2022-08-14T04:12:26;6.78;;;6.18;;
10450;SDS011;5273;51.290;6.918;2022-08-14T04:14:54;6.53;;;5.93;;
10450;SDS011;5273;51.290;6.918;2022-08-14T04:17:22;7.53;;;6.13;;
10450;SDS011;5273;51.290;6.918;2022-08-14T04:19:49;7.90;;;7.20;;
10450;SDS011;5273;51.290;6.918;2022-08-14T04:22:16;7.38;;;6.30;;
10450;SDS011;5273;51.290;6.918;2022-08-14T04:24:46;8.18;;;6.32;;
10450;SDS011;5273;51.290;6.918;2022-08-14T04:27:13;7.57;;;6.05;;
10450;SDS011;5273;51.290;6.918;2022-08-14T04:29:40;7.18;;;6.43;;
10450;SDS011;5273;51.290;6.918;2022-08-14T04:32:10;7.03;;;6.32;;
10450;SDS011;5273;51.290;6.918;2022-08-14T04:34:37;8.25;;;6.72;;
10450;SDS011;5273;51.290;6.918;2022-08-14T04:37:05;7.88;;;7.15;;
10450;SDS011;5273;51.290;6.918;2022-08-14T04:39:50;8.10;;;6.80;;
10450;SDS011;5273;51.290;6.918;2022-08-14T04:42:35;7.28;;;6.68;;
10450;SDS011;5273;51.290;6.918;2022-08-14T04:45:20;5.97;;;5.38;;
10450;SDS011;5273;51.290;6.918;2022-08-14T04:47:49;7.45;;;6.80;;
10450;SDS011;5273;51.290;6.918;2022-08-14T04:50:33;8.18;;;7.22;;
10450;SDS011;5273;51.290;6.918;2022-08-14T04:53:00;7.53;;;6.82;;
10450;SDS011;5273;51.290;6.918;2022-08-14T04:55:27;6.70;;;6.05;;
10450;SDS011;5273;51.290;6.918;2022-08-14T04:57:54;6.80;;;6.30;;
10450;SDS011;5273;51.290;6.918;2022-08-14T05:00:21;6.95;;;6.15;;
10450;SDS011;5273;51.290;6.918;2022-08-14T05:02:49;7.25;;;6.60;;
10450;SDS011;5273;51.290;6.918;2022-08-14T05:05:16;7.00;;;6.32;;
10450;SDS011;5273;51.290;6.918;2022-08-14T05:07:44;7.43;;;6.72;;
10450;SDS011;5273;51.290;6.918;2022-08-14T05:10:11;6.97;;;6.28;;
10450;SDS011;5273;51.290;6.918;2022-08-14T05:12:38;7.75;;;7.05;;
10450;SDS011;5273;51.290;6.918;2022-08-14T05:15:06;7.65;;;6.95;;
10450;SDS011;5273;51.290;6.918;2022-08-14T05:17:39;7.13;;;6.47;;
10450;SDS011;5273;51.290;6.918;2022-08-14T05:20:08;6.63;;;6.03;;
10450;SDS011;5273;51.290;6.918;2022-08-14T05:22:36;7.95;;;6.85;;
10450;SDS011;5273;51.290;6.918;2022-08-14T05:25:03;7.78;;;6.85;;
10450;SDS011;5273;51.290;6.918;2022-08-14T05:27:31;7.93;;;6.85;;
10450;SDS011;5273;51.290;6.918;2022-08-14T05:29:57;7.20;;;6.43;;
10450;SDS011;5273;51.290;6.918;2022-08-14T05:32:28;7.18;;;6.47;;
10450;SDS011;5273;51.290;6.918;2022-08-14T05:34:55;7.20;;;6.60;;
10450;SDS011;5273;51.290;6.918;2022-08-14T05:37:24;8.05;;;6.75;;
10450;SDS011;5273;51.290;6.918;2022-08-14T05:39:52;7.50;;;6.80;;
10450;SDS011;5273;51.290;6.918;2022-08-14T05:42:19;7.28;;;6.57;;
10450;SDS011;5273;51.290;6.918;2022-08-14T05:44:46;8.70;;;6.57;;
10450;SDS011;5273;51.290;6.918;2022-08-14T05:47:13;7.43;;;6.82;;
10450;SDS011;5273;51.290;6.918;2022-08-14T05:49:40;8.85;;;6.72;;
10450;SDS011;5273;51.290;6.918;2022-08-14T05:52:06;6.90;;;6.10;;
10450;SDS011;5273;51.290;6.918;2022-08-14T05:54:35;7.35;;;6.65;;
10450;SDS011;5273;51.290;6.918;2022-08-14T05:57:02;9.25;;;6.13;;
10450;SDS011;5273;51.290;6.918;2022-08-14T05:59:29;7.50;;;6.80;;
10450;SDS011;5273;51.290;6.918;2022-08-14T06:01:56;8.95;;;6.63;;
10450;SDS011;5273;51.290;6.918;2022-08-14T06:04:23;7.43;;;6.82;;
10450;SDS011;5273;51.290;6.918;2022-08-14T06:06:49;7.43;;;6.72;;
10450;SDS011;5273;51.290;6.918;2022-08-14T06:09:16;7.00;;;6.40;;
10450;SDS011;5273;51.290;6.918;2022-08-14T06:11:45;7.63;;;6.93;;
10450;SDS011;5273;51.290;6.918;2022-08-14T06:14:12;9.32;;;6.30;;
10450;SDS011;5273;51.290;6.918;2022-08-14T06:16:39;6.72;;;6.13;;
10450;SDS011;5273;51.290;6.918;2022-08-14T06:19:09;7.38;;;6.15;;
10450;SDS011;5273;51.290;6.918;2022-08-14T06:21:36;10.07;;;6.18;;
10450;SDS011;5273;51.290;6.918;2022-08-14T06:24:03;6.80;;;6.25;;
10450;SDS011;5273;51.290;6.918;2022-08-14T06:26:30;6.45;;;5.80;;
10450;SDS011;5273;51.290;6.918;2022-08-14T06:28:58;9.40;;;6.30;;
10450;SDS011;5273;51.290;6.918;2022-08-14T06:31:25;7.75;;;6.38;;
10450;SDS011;5273;51.290;6.918;2022-08-14T06:33:52;7.85;;;5.85;;
10450;SDS011;5273;51.290;6.918;2022-08-14T06:36:19;5.80;;;5.30;;
10450;SDS011;5273;51.290;6.918;2022-08-14T06:38:45;6.18;;;5.68;;
10450;SDS011;5273;51.290;6.918;2022-08-14T06:41:12;8.27;;;5.60;;
10450;SDS011;5273;51.290;6.918;2022-08-14T06:43:39;5.53;;;5.03;;
10450;SDS011;5273;51.290;6.918;2022-08-14T06:46:07;6.22;;;5.53;;
10450;SDS011;5273;51.290;6.918;2022-08-14T06:48:34;6.35;;;5.35;;
10450;SDS011;5273;51.290;6.918;2022-08-14T06:51:01;6.10;;;5.50;;
10450;SDS011;5273;51.290;6.918;2022-08-14T06:53:28;5.43;;;5.00;;
10450;SDS011;5273;51.290;6.918;2022-08-14T06:55:55;5.30;;;4.80;;
10450;SDS011;5273;51.290;6.918;2022-08-14T06:58:22;5.47;;;5.05;;
10450;SDS011;5273;51.290;6.918;2022-08-14T07:00:49;5.32;;;4.85;;
10450;SDS011;5273;51.290;6.918;2022-08-14T07:03:35;6.68;;;4.70;;
10450;SDS011;5273;51.290;6.918;2022-08-14T07:06:19;4.93;;;4.28;;
10450;SDS011;5273;51.290;6.918;2022-08-14T07:08:47;4.90;;;4.50;;
10450;SDS011;5273;51.290;6.918;2022-08-14T07:11:14;4.90;;;4.40;;
10450;SDS011;5273;51.290;6.918;2022-08-14T07:13:41;5.10;;;4.68;;
10450;SDS011;5273;51.290;6.918;2022-08-14T07:16:08;4.43;;;4.00;;
10450;SDS011;5273;51.290;6.918;2022-08-14T07:18:38;5.07;;;4.68;;
10450;SDS011;5273;51.290;6.918;2022-08-14T07:21:07;5.40;;;4.85;;
10450;SDS011;5273;51.290;6.918;2022-08-14T07:23:34;5.20;;;4.70;;
10450;SDS011;5273;51.290;6.918;2022-08-14T07:26:02;4.70;;;4.30;;
10450;SDS011;5273;51.290;6.918;2022-08-14T07:28:30;5.15;;;4.60;;
10450;SDS011;5273;51.290;6.918;2022-08-14T07:30:59;4.65;;;4.22;;
10450;SDS011;5273;51.290;6.918;2022-08-14T07:33:28;6.18;;;4.65;;
10450;SDS011;5273;51.290;6.918;2022-08-14T07:36:02;5.28;;;4.88;;
10450;SDS011;5273;51.290;6.918;2022-08-14T07:38:30;4.50;;;4.20;;
10450;SDS011;5273;51.290;6.918;2022-08-14T07:40:57;4.88;;;4.47;;
10450;SDS011;5273;51.290;6.918;2022-08-14T07:43:24;5.28;;;4.78;;
10450;SDS011;5273;51.290;6.918;2022-08-14T07:45:52;4.78;;;4.20;;
10450;SDS011;5273;51.290;6.918;2022-08-14T07:48:19;5.97;;;4.40;;
10450;SDS011;5273;51.290;6.918;2022-08-14T07:50:46;4.85;;;4.07;;
10450;SDS011;5273;51.290;6.918;2022-08-14T07:53:16;4.63;;;4.32;;
10450;SDS011;5273;51.290;6.918;2022-08-14T07:55:43;4.88;;;4.30;;
10450;SDS011;5273;51.290;6.918;2022-08-14T07:58:11;4.40;;;4.10;;
10450;SDS011;5273;51.290;6.918;2022-08-14T08:00:39;4.78;;;4.18;;
10450;SDS011;5273;51.290;6.918;2022-08-14T08:03:07;4.30;;;3.90;;
10450;SDS011;5273;51.290;6.918;2022-08-14T08:05:35;4.93;;;4.22;;
10450;SDS011;5273;51.290;6.918;2022-08-14T08:08:04;4.07;;;3.78;;
10450;SDS011;5273;51.290;6.918;2022-08-14T08:10:33;3.88;;;3.58;;
10450;SDS011;5273;51.290;6.918;2022-08-14T08:13:03;5.43;;;4.28;;
10450;SDS011;5273;51.290;6.918;2022-08-14T08:15:33;5.18;;;3.92;;
10450;SDS011;5273;51.290;6.918;2022-08-14T08:18:02;4.38;;;4.07;;
10450;SDS011;5273;51.290;6.918;2022-08-14T08:20:30;4.40;;;4.10;;
10450;SDS011;5273;51.290;6.918;2022-08-14T08:22:58;4.07;;;3.67;;
10450;SDS011;5273;51.290;6.918;2022-08-14T08:25:27;4.22;;;3.92;;
10450;SDS011;5273;51.290;6.918;2022-08-14T08:27:58;3.88;;;3.58;;
10450;SDS011;5273;51.290;6.918;2022-08-14T08:30:26;4.07;;;3.78;;
10450;SDS011;5273;51.290;6.918;2022-08-14T08:32:54;4.10;;;3.80;;
10450;SDS011;5273;51.290;6.918;2022-08-14T08:35:22;3.95;;;3.72;;
10450;SDS011;5273;51.290;6.918;2022-08-14T08:37:51;4.20;;;3.90;;
10450;SDS011;5273;51.290;6.918;2022-08-14T08:40:23;4.15;;;3.80;;
10450;SDS011;5273;51.290;6.918;2022-08-14T08:42:51;3.70;;;3.50;;
10450;SDS011;5273;51.290;6.918;2022-08-14T08:45:19;3.75;;;3.55;;
10450;SDS011;5273;51.290;6.918;2022-08-14T08:47:47;4.60;;;3.72;;
10450;SDS011;5273;51.290;6.918;2022-08-14T08:50:19;3.80;;;3.50;;
10450;SDS011;5273;51.290;6.918;2022-08-14T08:52:53;3.83;;;3.40;;
10450;SDS011;5273;51.290;6.918;2022-08-14T08:55:24;3.72;;;3.45;;
10450;SDS011;5273;51.290;6.918;2022-08-14T08:57:53;5.68;;;3.65;;
10450;SDS011;5273;51.290;6.918;2022-08-14T09:00:22;4.00;;;3.70;;
10450;SDS011;5273;51.290;6.918;2022-08-14T09:02:53;4.82;;;4.07;;
10450;SDS011;5273;51.290;6.918;2022-08-14T09:05:22;4.63;;;4.05;;
10450;SDS011;5273;51.290;6.918;2022-08-14T09:07:49;3.85;;;3.55;;
10450;SDS011;5273;51.290;6.918;2022-08-14T09:10:16;3.80;;;3.60;;
10450;SDS011;5273;51.290;6.918;2022-08-14T09:12:43;3.70;;;3.40;;
10450;SDS011;5273;51.290;6.918;2022-08-14T09:15:11;3.78;;;3.47;;
10450;SDS011;5273;51.290;6.918;2022-08-14T09:17:41;4.00;;;3.70;;
10450;SDS011;5273;51.290;6.918;2022-08-14T09:20:09;4.45;;;3.72;;
10450;SDS011;5273;51.290;6.918;2022-08-14T09:22:38;4.03;;;3.72;;
10450;SDS011;5273;51.290;6.918;2022-08-14T09:25:05;3.85;;;3.53;;
10450;SDS011;5273;51.290;6.918;2022-08-14T09:27:32;3.75;;;3.33;;
10450;SDS011;5273;51.290;6.918;2022-08-14T09:30:00;3.72;;;3.42;;
10450;SDS011;5273;51.290;6.918;2022-08-14T09:32:29;3.70;;;3.40;;
10450;SDS011;5273;51.290;6.918;2022-08-14T09:35:14;4.57;;;3.60;;
10450;SDS011;5273;51.290;6.918;2022-08-14T09:37:50;3.90;;;3.65;;
10450;SDS011;5273;51.290;6.918;2022-08-14T09:40:26;4.28;;;3.85;;
10450;SDS011;5273;51.290;6.918;2022-08-14T09:43:03;4.25;;;3.70;;
10450;SDS011;5273;51.290;6.918;2022-08-14T09:45:38;5.60;;;3.85;;
10450;SDS011;5273;51.290;6.918;2022-08-14T09:48:14;4.07;;;3.40;;
10450;SDS011;5273;51.290;6.918;2022-08-14T09:50:47;3.50;;;3.30;;
10450;SDS011;5273;51.290;6.918;2022-08-14T09:53:16;3.33;;;3.13;;
10450;SDS011;5273;51.290;6.918;2022-08-14T09:55:59;3.70;;;3.50;;
10450;SDS011;5273;51.290;6.918;2022-08-14T09:58:34;3.22;;;3.03;;
10450;SDS011;5273;51.290;6.918;2022-08-14T10:01:06;3.50;;;3.20;;
10450;SDS011;5273;51.290;6.918;2022-08-14T10:03:35;5.57;;;3.33;;
10450;SDS011;5273;51.290;6.918;2022-08-14T10:06:04;4.00;;;3.60;;
10450;SDS011;5273;51.290;6.918;2022-08-14T10:08:40;4.28;;;3.88;;
10450;SDS011;5273;51.290;6.918;2022-08-14T10:11:16;4.13;;;3.72;;
10450;SDS011;5273;51.290;6.918;2022-08-14T10:13:46;3.90;;;3.58;;
10450;SDS011;5273;51.290;6.918;2022-08-14T10:16:16;3.75;;;3.45;;
10450;SDS011;5273;51.290;6.918;2022-08-14T10:18:43;4.07;;;3.78;;
10450;SDS011;5273;51.290;6.918;2022-08-14T10:21:16;3.22;;;3.03;;
10450;SDS011;5273;51.290;6.918;2022-08-14T10:23:44;3.25;;;3.05;;
10450;SDS011;5273;51.290;6.918;2022-08-14T10:26:14;3.65;;;3.35;;
10450;SDS011;5273;51.290;6.918;2022-08-14T10:28:43;4.03;;;3.42;;
10450;SDS011;5273;51.290;6.918;2022-08-14T10:31:16;3.55;;;3.30;;
10450;SDS011;5273;51.290;6.918;2022-08-14T10:33:56;5.60;;;3.38;;
10450;SDS011;5273;51.290;6.918;2022-08-14T10:36:27;3.83;;;3.17;;
10450;SDS011;5273;51.290;6.918;2022-08-14T10:38:56;3.88;;;3.50;;
10450;SDS011;5273;51.290;6.918;2022-08-14T10:41:32;3.33;;;3.13;;
10450;SDS011;5273;51.290;6.918;2022-08-14T10:44:05;3.50;;;3.28;;
10450;SDS011;5273;51.290;6.918;2022-08-14T10:46:38;3.78;;;3.35;;
10450;SDS011;5273;51.290;6.918;2022-08-14T10:49:16;3.58;;;3.28;;
10450;SDS011;5273;51.290;6.918;2022-08-14T10:52:00;3.50;;;3.17;;
10450;SDS011;5273;51.290;6.918;2022-08-14T10:54:36;3.70;;;3.40;;
10450;SDS011;5273;51.290;6.918;2022-08-14T10:57:11;3.40;;;3.20;;
10450;SDS011;5273;51.290;6.918;2022-08-14T10:59:44;3.67;;;3.38;;
10450;SDS011;5273;51.290;6.918;2022-08-14T11:02:18;4.20;;;3.80;;
10450;SDS011;5273;51.290;6.918;2022-08-14T11:04:56;4.03;;;3.45;;
10450;SDS011;5273;51.290;6.918;2022-08-14T11:07:25;3.90;;;3.28;;
10450;SDS011;5273;51.290;6.918;2022-08-14T11:09:53;3.60;;;3.40;;
10450;SDS011;5273;51.290;6.918;2022-08-14T11:12:21;3.97;;;3.50;;
10450;SDS011;5273;51.290;6.918;2022-08-14T11:14:50;3.50;;;3.20;;
10450;SDS011;5273;51.290;6.918;2022-08-14T11:17:17;3.30;;;3.10;;
10450;SDS011;5273;51.290;6.918;2022-08-14T11:19:45;4.35;;;3.72;;
10450;SDS011;5273;51.290;6.918;2022-08-14T11:22:12;4.00;;;3.42;;
10450;SDS011;5273;51.290;6.918;2022-08-14T11:24:42;4.05;;;3.20;;
10450;SDS011;5273;51.290;6.918;2022-08-14T11:27:11;4.07;;;3.78;;
10450;SDS011;5273;51.290;6.918;2022-08-14T11:29:40;4.85;;;3.65;;
10450;SDS011;5273;51.290;6.918;2022-08-14T11:32:08;4.72;;;3.90;;
10450;SDS011;5273;51.290;6.918;2022-08-14T11:34:35;5.90;;;3.30;;
10450;SDS011;5273;51.290;6.918;2022-08-14T11:37:08;4.00;;;3.60;;
10450;SDS011;5273;51.290;6.918;2022-08-14T11:39:35;4.72;;;3.90;;
10450;SDS011;5273;51.290;6.918;2022-08-14T11:42:04;3.75;;;3.45;;
10450;SDS011;5273;51.290;6.918;2022-08-14T11:44:32;4.22;;;3.83;;
10450;SDS011;5273;51.290;6.918;2022-08-14T11:46:59;4.00;;;3.60;;
10450;SDS011;5273;51.290;6.918;2022-08-14T11:49:27;3.80;;;3.50;;
10450;SDS011;5273;51.290;6.918;2022-08-14T11:51:56;4.30;;;3.90;;
10450;SDS011;5273;51.290;6.918;2022-08-14T11:54:22;4.45;;;3.83;;
10450;SDS011;5273;51.290;6.918;2022-08-14T11:56:50;4.28;;;3.95;;
10450;SDS011;5273;51.290;6.918;2022-08-14T11:59:18;4.00;;;3.60;;
10450;SDS011;5273;51.290;6.918;2022-08-14T12:01:47;5.63;;;3.30;;
10450;SDS011;5273;51.290;6.918;2022-08-14T12:04:15;3.45;;;3.22;;
10450;SDS011;5273;51.290;6.918;2022-08-14T12:06:44;3.97;;;3.67;;
10450;SDS011;5273;51.290;6.918;2022-08-14T12:09:14;3.90;;;3.05;;
10450;SDS011;5273;51.290;6.918;2022-08-14T12:11:53;4.68;;;3.60;;
10450;SDS011;5273;51.290;6.918;2022-08-14T12:14:22;3.85;;;3.55;;
10450;SDS011;5273;51.290;6.918;2022-08-14T12:16:59;5.25;;;3.50;;
10450;SDS011;5273;51.290;6.918;2022-08-14T12:19:29;4.60;;;3.47;;
10450;SDS011;5273;51.290;6.918;2022-08-14T12:21:56;3.53;;;3.28;;
10450;SDS011;5273;51.290;6.918;2022-08-14T12:24:26;3.88;;;3.55;;
10450;SDS011;5273;51.290;6.918;2022-08-14T12:26:54;4.07;;;3.50;;
10450;SDS011;5273;51.290;6.918;2022-08-14T12:29:23;4.53;;;3.55;;
10450;SDS011;5273;51.290;6.918;2022-08-14T12:31:57;5.32;;;3.20;;
10450;SDS011;5273;51.290;6.918;2022-08-14T12:34:30;4.28;;;3.63;;
10450;SDS011;5273;51.290;6.918;2022-08-14T12:37:02;3.65;;;3.30;;
10450;SDS011;5273;51.290;6.918;2022-08-14T12:39:30;3.70;;;3.40;;
10450;SDS011;5273;51.290;6.918;2022-08-14T12:41:58;5.50;;;3.42;;
10450;SDS011;5273;51.290;6.918;2022-08-14T12:44:32;4.50;;;3.67;;
10450;SDS011;5273;51.290;6.918;2022-08-14T12:47:02;3.40;;;3.20;;
10450;SDS011;5273;51.290;6.918;2022-08-14T12:49:30;3.78;;;3.47;;
10450;SDS011;5273;51.290;6.918;2022-08-14T12:51:58;4.32;;;3.65;;
10450;SDS011;5273;51.290;6.918;2022-08-14T12:54:27;4.78;;;3.65;;
10450;SDS011;5273;51.290;6.918;2022-08-14T12:57:02;3.55;;;3.30;;
10450;SDS011;5273;51.290;6.918;2022-08-14T12:59:32;3.47;;;3.25;;
10450;SDS011;5273;51.290;6.918;2022-08-14T13:02:00;3.60;;;3.30;;
10450;SDS011;5273;51.290;6.918;2022-08-14T13:04:27;6.53;;;3.70;;
10450;SDS011;5273;51.290;6.918;2022-08-14T13:06:58;3.97;;;3.15;;
10450;SDS011;5273;51.290;6.918;2022-08-14T13:09:33;3.10;;;2.90;;
10450;SDS011;5273;51.290;6.918;2022-08-14T13:12:01;3.92;;;3.30;;
10450;SDS011;5273;51.290;6.918;2022-08-14T13:14:30;3.33;;;3.03;;
10450;SDS011;5273;51.290;6.918;2022-08-14T13:16:59;4.68;;;3.10;;
10450;SDS011;5273;51.290;6.918;2022-08-14T13:19:27;3.70;;;3.40;;
10450;SDS011;5273;51.290;6.918;2022-08-14T13:21:54;4.00;;;3.70;;
10450;SDS011;5273;51.290;6.918;2022-08-14T13:24:22;4.00;;;3.60;;
10450;SDS011;5273;51.290;6.918;2022-08-14T13:26:50;4.45;;;3.38;;
10450;SDS011;5273;51.290;6.918;2022-08-14T13:29:21;3.35;;;3.13;;
10450;SDS011;5273;51.290;6.918;2022-08-14T13:31:52;3.38;;;3.17;;
10450;SDS011;5273;51.290;6.918;2022-08-14T13:34:22;3.72;;;3.42;;
10450;SDS011;5273;51.290;6.918;2022-08-14T13:36:50;4.03;;;3.58;;
10450;SDS011;5273;51.290;6.918;2022-08-14T13:39:19;3.85;;;3.55;;
10450;SDS011;5273;51.290;6.918;2022-08-14T13:41:47;3.90;;;3.60;;
10450;SDS011;5273;51.290;6.918;2022-08-14T13:44:14;4.43;;;3.88;;
10450;SDS011;5273;51.290;6.918;2022-08-14T13:46:43;4.03;;;3.55;;
10450;SDS011;5273;51.290;6.918;2022-08-14T13:49:11;4.07;;;3.78;;
10450;SDS011;5273;51.290;6.918;2022-08-14T13:51:39;4.10;;;3.80;;
10450;SDS011;5273;51.290;6.918;2022-08-14T13:54:11;4.45;;;3.08;;
10450;SDS011;5273;51.290;6.918;2022-08-14T13:56:42;3.83;;;3.53;;
10450;SDS011;5273;51.290;6.918;2022-08-14T13:59:09;5.03;;;3.75;;
10450;SDS011;5273;51.290;6.918;2022-08-14T14:01:36;3.55;;;3.35;;
10450;SDS011;5273;51.290;6.918;2022-08-14T14:04:05;3.70;;;3.40;;
10450;SDS011;5273;51.290;6.918;2022-08-14T14:06:38;3.63;;;3.42;;
10450;SDS011;5273;51.290;6.918;2022-08-14T14:09:08;3.88;;;3.58;;
10450;SDS011;5273;51.290;6.918;2022-08-14T14:11:37;3.67;;;3.38;;
10450;SDS011;5273;51.290;6.918;2022-08-14T14:14:04;3.35;;;3.05;;
10450;SDS011;5273;51.290;6.918;2022-08-14T14:16:30;5.55;;;3.60;;
10450;SDS011;5273;51.290;6.918;2022-08-14T14:19:00;3.63;;;3.33;;
10450;SDS011;5273;51.290;6.918;2022-08-14T14:21:28;3.42;;;3.15;;
10450;SDS011;5273;51.290;6.918;2022-08-14T14:23:57;3.70;;;3.40;;
10450;SDS011;5273;51.290;6.918;2022-08-14T14:26:24;4.18;;;3.53;;
10450;SDS011;5273;51.290;6.918;2022-08-14T14:28:53;4.03;;;3.72;;
10450;SDS011;5273;51.290;6.918;2022-08-14T14:31:22;3.85;;;3.45;;
10450;SDS011;5273;51.290;6.918;2022-08-14T14:33:50;6.35;;;3.58;;
10450;SDS011;5273;51.290;6.918;2022-08-14T14:36:19;3.55;;;3.22;;
10450;SDS011;5273;51.290;6.918;2022-08-14T14:38:50;5.18;;;3.45;;
10450;SDS011;5273;51.290;6.918;2022-08-14T14:41:21;4.03;;;3.20;;
10450;SDS011;5273;51.290;6.918;2022-08-14T14:43:50;3.30;;;3.10;;
10450;SDS011;5273;51.290;6.918;2022-08-14T14:46:18;3.85;;;3.55;;
10450;SDS011;5273;51.290;6.918;2022-08-14T14:48:46;3.25;;;3.03;;
10450;SDS011;5273;51.290;6.918;2022-08-14T14:51:14;3.20;;;3.00;;
10450;SDS011;5273;51.290;6.918;2022-08-14T14:53:43;3.28;;;3.08;;
10450;SDS011;5273;51.290;6.918;2022-08-14T14:56:11;6.00;;;3.97;;
10450;SDS011;5273;51.290;6.918;2022-08-14T14:58:40;3.80;;;3.50;;
10450;SDS011;5273;51.290;6.918;2022-08-14T15:01:08;3.90;;;3.60;;
10450;SDS011;5273;51.290;6.918;2022-08-14T15:03:38;4.10;;;3.50;;
10450;SDS011;5273;51.290;6.918;2022-08-14T15:06:07;3.97;;;3.67;;
10450;SDS011;5273;51.290;6.918;2022-08-14T15:08:34;3.95;;;3.65;;
10450;SDS011;5273;51.290;6.918;2022-08-14T15:11:02;3.90;;;3.60;;
10450;SDS011;5273;51.290;6.918;2022-08-14T15:13:29;3.47;;;3.17;;